This is the latest recevied weather packets stored in our database for station/object TA2CAY. If no packets are shown the sender has not sent any weather packets the latest 10 day(s).
| Time | Temp. | Humidity | Pressure | Rain* | Wind** | Luminosity | Snow |
|---|---|---|---|---|---|---|---|
| 1777477986 | 17.22° C | 60% | 1027.7 hPa | - | - | - | - |
| 1777476185 | 19.44° C | 55% | 1027.8 hPa | - | - | - | - |
| 1777474384 | 22.22° C | 48% | 1027.8 hPa | - | - | - | - |
| 1777472583 | 23.33° C | 47% | 1027.8 hPa | - | - | - | - |
| 1777470782 | 25° C | 43% | 1027.8 hPa | - | - | - | - |
| 1777468981 | 24.44° C | 43% | 1027.5 hPa | - | - | - | - |
| 1777467181 | 23.89° C | 45% | 1027.8 hPa | - | - | - | - |
| 1777465380 | 22.78° C | 43% | 1028 hPa | - | - | - | - |
| 1777463579 | 22.22° C | 44% | 1028.2 hPa | - | - | - | - |
| 1777461778 | 17.78° C | 51% | 1028.3 hPa | - | - | - | - |
| 1777459977 | 18.33° C | 51% | 1028.3 hPa | - | - | - | - |
| 1777458176 | 17.78° C | 52% | 1028.4 hPa | - | - | - | - |
| 1777456376 | 17.78° C | 51% | 1028.4 hPa | - | - | - | - |
| 1777454575 | 18.33° C | 50% | 1028.4 hPa | - | - | - | - |
| 1777452774 | 17.78° C | 51% | 1028.4 hPa | - | - | - | - |
| 1777450973 | 17.78° C | 51% | 1028.6 hPa | - | - | - | - |
| 1777449172 | 17.22° C | 53% | 1028.8 hPa | - | - | - | - |
| 1777447371 | 17.22° C | 52% | 1028.8 hPa | - | - | - | - |
| 1777445570 | 16.67° C | 53% | 1028.8 hPa | - | - | - | - |
| 1777443769 | 15.56° C | 55% | 1029.1 hPa | - | - | - | - |
| 1777441969 | 15.56° C | 55% | 1029.3 hPa | - | - | - | - |
| 1777440169 | 14.44° C | 57% | 1029.2 hPa | - | - | - | - |
| 1777438367 | 13.89° C | 57% | 1029.4 hPa | - | - | - | - |
| 1777436566 | 14.44° C | 57% | 1029.3 hPa | - | - | - | - |
| 1777434765 | 12.78° C | 60% | 1029.1 hPa | - | - | - | - |
* Rain since midnight (hover to see other rain measurements)
** Current wind speed in m/s (hover to see current wind gust speed)